createdAt,value
2017-04-17T00:00:56.795Z,26.98
2017-04-17T00:02:06.157Z,27.08
2017-04-17T00:03:16.693Z,27.08
2017-04-17T00:04:26.988Z,27.27
2017-04-17T00:05:37.277Z,27.17
2017-04-17T00:06:47.258Z,27.17
2017-04-17T00:07:57.246Z,27.08
2017-04-17T00:09:07.789Z,27.17
2017-04-17T00:10:18.067Z,26.89
2017-04-17T00:11:28.077Z,27.17
2017-04-17T00:12:38.358Z,27.17
2017-04-17T00:13:48.651Z,26.89
2017-04-17T00:14:58.883Z,27.17
2017-04-17T00:16:08.852Z,27.17
2017-04-17T00:17:18.823Z,27.17
2017-04-17T00:18:29.103Z,27.17
2017-04-17T00:19:38.784Z,27.08
2017-04-17T00:20:49.311Z,26.98
2017-04-17T00:21:59.625Z,27.08
2017-04-17T00:23:09.900Z,26.98
2017-04-17T00:24:19.867Z,27.17
2017-04-17T00:25:29.532Z,27.27
2017-04-17T00:26:40.067Z,26.79
2017-04-17T00:27:50.791Z,26.98
2017-04-17T00:29:01.201Z,27.17
2017-04-17T00:30:11.176Z,26.98
2017-04-17T00:31:21.460Z,27.08
2017-04-17T00:32:31.697Z,27.08
2017-04-17T00:33:41.683Z,26.98
2017-04-17T00:34:51.975Z,27.27
2017-04-17T00:36:02.258Z,26.98
2017-04-17T00:37:12.571Z,27.17
2017-04-17T00:38:23.126Z,27.08
2017-04-17T00:39:33.091Z,26.98
2017-04-17T00:40:43.064Z,27.08
2017-04-17T00:41:52.716Z,27.08
2017-04-17T00:43:02.691Z,27.08
2017-04-17T00:44:13.223Z,26.98
2017-04-17T00:45:23.509Z,27.27
2017-04-17T00:46:33.800Z,26.98
2017-04-17T00:47:44.083Z,27.17
2017-04-17T00:48:54.052Z,27.17
2017-04-17T00:50:04.577Z,27.17
2017-04-17T00:51:14.850Z,27.17
2017-04-17T00:52:24.827Z,27.17
2017-04-17T00:53:34.487Z,27.17
2017-04-17T00:54:44.969Z,27.08
2017-04-17T00:55:55.495Z,26.89
2017-04-17T00:57:05.457Z,27.17
2017-04-17T00:58:15.938Z,26.89
2017-04-17T00:59:25.631Z,27.08
2017-04-17T01:00:36.055Z,26.98
2017-04-17T01:01:46.582Z,27.17
2017-04-17T01:02:56.864Z,26.98
2017-04-17T01:04:07.163Z,27.17
2017-04-17T01:05:17.447Z,27.08
2017-04-17T01:06:26.806Z,26.98
2017-04-17T01:07:37.390Z,26.98
2017-04-17T01:08:47.677Z,27.08
2017-04-17T01:09:57.340Z,27.08
2017-04-17T01:11:07.313Z,27.27
2017-04-17T01:12:17.598Z,26.98
2017-04-17T01:13:28.181Z,27.27
2017-04-17T01:14:38.472Z,27.08
2017-04-17T01:15:48.768Z,27.27
2017-04-17T01:16:59.049Z,27.27
2017-04-17T01:18:09.343Z,27.17
2017-04-17T01:19:19.560Z,27.17
2017-04-17T01:20:29.548Z,27.17
2017-04-17T01:21:39.520Z,27.08
2017-04-17T01:22:49.483Z,27.17
2017-04-17T01:23:59.468Z,26.89
2017-04-17T01:25:10.060Z,27.08
2017-04-17T01:26:20.342Z,27.27
2017-04-17T01:27:29.991Z,27.17
2017-04-17T01:28:40.282Z,27.08
2017-04-17T01:29:50.557Z,27.08
2017-04-17T01:31:00.857Z,27.08
2017-04-17T01:32:11.158Z,26.7
2017-04-17T01:33:21.442Z,26.7
2017-04-17T01:34:31.729Z,26.79
2017-04-17T01:35:42.025Z,27.08
2017-04-17T01:36:52.252Z,26.79
2017-04-17T01:38:02.532Z,26.7
2017-04-17T01:39:12.827Z,26.7
2017-04-17T01:40:23.114Z,26.98
2017-04-17T01:41:33.387Z,26.89
2017-04-17T01:42:43.349Z,26.79
2017-04-17T01:43:53.648Z,26.7
2017-04-17T01:45:03.937Z,27.08
2017-04-17T01:46:14.229Z,27.08
2017-04-17T01:47:24.511Z,27.08
2017-04-17T01:48:34.735Z,26.98
2017-04-17T01:49:44.695Z,27.08
2017-04-17T01:50:54.975Z,26.89
2017-04-17T01:52:04.945Z,27.08
2017-04-17T01:53:15.220Z,26.89
2017-04-17T01:54:25.803Z,26.79
2017-04-17T01:55:36.069Z,26.79
2017-04-17T01:56:46.033Z,26.79
2017-04-17T01:57:56.076Z,26.79
2017-04-17T01:59:06.443Z,26.89
2017-04-17T02:00:16.978Z,26.7
2017-04-17T02:01:26.947Z,26.98
2017-04-17T02:02:37.229Z,26.89
2017-04-17T02:03:47.214Z,26.7
2017-04-17T02:04:57.228Z,26.79
2017-04-17T02:06:07.448Z,26.79
2017-04-17T02:07:17.421Z,26.79
2017-04-17T02:08:27.691Z,26.89
2017-04-17T02:09:37.973Z,26.7
2017-04-17T02:10:48.257Z,26.7
2017-04-17T02:11:58.480Z,26.79
2017-04-17T02:13:08.447Z,26.79
2017-04-17T02:14:18.430Z,26.7
2017-04-17T02:15:28.712Z,26.7
2017-04-17T02:16:39.007Z,26.98
2017-04-17T02:17:49.546Z,27.17
2017-04-17T02:18:59.885Z,26.98
2017-04-17T02:20:10.176Z,27.08
2017-04-17T02:21:20.486Z,26.89
2017-04-17T02:22:30.458Z,27.08
2017-04-17T02:23:40.724Z,27.08
2017-04-17T02:24:51.010Z,26.89
2017-04-17T02:26:01.208Z,26.7
2017-04-17T02:27:11.181Z,27.17
2017-04-17T02:28:21.519Z,27.08
2017-04-17T02:29:32.054Z,27.08
2017-04-17T02:30:42.350Z,27.08
2017-04-17T02:31:52.636Z,27.27
2017-04-17T02:33:02.929Z,27.08
2017-04-17T02:34:13.211Z,27.27
2017-04-17T02:35:23.427Z,26.98
2017-04-17T02:36:33.085Z,26.7
2017-04-17T02:37:43.376Z,26.89
2017-04-17T02:38:53.658Z,27.08
2017-04-17T02:40:03.630Z,27.08
2017-04-17T02:41:13.847Z,26.79
2017-04-17T02:42:24.129Z,26.89
2017-04-17T02:43:34.406Z,26.7
2017-04-17T02:44:44.378Z,26.89
2017-04-17T02:45:54.663Z,26.79
2017-04-17T02:47:04.878Z,26.89
2017-04-17T02:48:15.162Z,26.89
2017-04-17T02:49:25.449Z,26.89
2017-04-17T02:50:35.735Z,26.79
2017-04-17T02:51:45.701Z,26.7
2017-04-17T02:52:56.228Z,26.89
2017-04-17T02:54:06.194Z,26.79
2017-04-17T02:55:16.177Z,26.78
2017-04-17T02:56:26.468Z,26.79
2017-04-17T02:57:36.438Z,26.7
2017-04-17T02:58:46.664Z,26.79
2017-04-17T02:59:56.963Z,26.79
2017-04-17T03:01:06.944Z,26.7
2017-04-17T03:02:16.903Z,26.79
2017-04-17T03:03:26.574Z,26.79
2017-04-17T03:04:36.848Z,26.79
2017-04-17T03:05:47.138Z,26.89
2017-04-17T03:06:57.459Z,26.6
2017-04-17T03:08:07.735Z,26.6
2017-04-17T03:09:18.041Z,26.5
2017-04-17T03:10:28.287Z,26.7
2017-04-17T03:11:38.562Z,26.89
2017-04-17T03:12:48.535Z,26.89
2017-04-17T03:13:58.519Z,26.79
2017-04-17T03:15:08.488Z,26.5
2017-04-17T03:16:18.758Z,26.7
2017-04-17T03:17:29.042Z,26.79
2017-04-17T03:18:39.020Z,26.7
2017-04-17T03:19:49.316Z,26.6
2017-04-17T03:20:59.603Z,26.6
2017-04-17T03:22:10.125Z,26.89
2017-04-17T03:23:20.407Z,26.7
2017-04-17T03:24:30.692Z,26.79
2017-04-17T03:25:40.970Z,26.79
2017-04-17T03:26:50.933Z,26.7
2017-04-17T03:28:01.194Z,26.6
2017-04-17T03:29:11.556Z,26.7
2017-04-17T03:30:21.516Z,26.79
2017-04-17T03:31:31.794Z,26.7
2017-04-17T03:32:42.080Z,26.79
2017-04-17T03:33:52.607Z,26.7
2017-04-17T03:35:02.885Z,26.7
2017-04-17T03:36:13.166Z,26.7
2017-04-17T03:37:23.441Z,26.79
2017-04-17T03:38:33.455Z,26.7
2017-04-17T03:39:44.036Z,26.79
2017-04-17T03:40:54.000Z,26.79
2017-04-17T03:42:03.977Z,26.89
2017-04-17T03:43:14.262Z,26.79
2017-04-17T03:44:24.553Z,26.79
2017-04-17T03:45:35.448Z,26.79
2017-04-17T03:46:45.734Z,26.79
2017-04-17T03:47:56.019Z,26.79
2017-04-17T03:49:05.987Z,26.89
2017-04-17T03:50:15.954Z,26.79
2017-04-17T03:51:26.492Z,26.79
2017-04-17T03:52:36.778Z,26.7
2017-04-17T03:53:46.750Z,26.7
2017-04-17T03:54:56.734Z,26.79
2017-04-17T03:56:06.813Z,26.7
2017-04-17T03:57:17.029Z,26.79
2017-04-17T03:58:27.054Z,26.7
2017-04-17T03:59:37.348Z,26.6
2017-04-17T04:00:47.627Z,26.79
2017-04-17T04:01:57.906Z,26.89
2017-04-17T04:03:08.432Z,26.79
2017-04-17T04:04:18.409Z,26.79
2017-04-17T04:05:28.686Z,26.79
2017-04-17T04:06:38.652Z,26.79
2017-04-17T04:07:48.624Z,26.79
2017-04-17T04:08:58.891Z,26.6
2017-04-17T04:10:08.861Z,26.6
2017-04-17T04:11:18.830Z,26.89
2017-04-17T04:12:29.108Z,26.6
2017-04-17T04:13:39.083Z,26.5
2017-04-17T04:14:49.631Z,26.6
2017-04-17T04:15:59.596Z,26.7
2017-04-17T04:17:09.574Z,26.7
2017-04-17T04:18:19.855Z,26.6
2017-04-17T04:19:30.155Z,26.7
2017-04-17T04:20:40.694Z,26.6
2017-04-17T04:21:50.967Z,26.5
2017-04-17T04:23:00.631Z,26.6
2017-04-17T04:24:10.925Z,26.6
2017-04-17T04:25:20.895Z,26.31
2017-04-17T04:26:31.113Z,26.5
2017-04-17T04:27:41.094Z,26.5
2017-04-17T04:28:51.385Z,26.4
2017-04-17T04:30:01.035Z,26.4
2017-04-17T04:31:11.384Z,26.31
2017-04-17T04:32:21.437Z,26.31
2017-04-17T04:33:31.509Z,26.21
2017-04-17T04:34:41.788Z,26.21
2017-04-17T04:35:51.784Z,26.31
2017-04-17T04:37:02.077Z,26.31
2017-04-17T04:38:12.342Z,26.21
2017-04-17T04:39:22.315Z,26.31
2017-04-17T04:40:32.628Z,26.21
2017-04-17T04:41:42.912Z,26.4
2017-04-17T04:42:52.880Z,26.31
2017-04-17T04:44:03.414Z,26.12
2017-04-17T04:45:13.698Z,26.4
2017-04-17T04:46:23.365Z,26.12
2017-04-17T04:47:33.644Z,26.4
2017-04-17T04:48:43.638Z,26.4
2017-04-17T04:49:54.183Z,26.31
2017-04-17T04:51:04.156Z,26.31
2017-04-17T04:52:14.441Z,26.31
2017-04-17T04:53:24.718Z,26.31
2017-04-17T04:54:35.007Z,26.31
2017-04-17T04:55:45.595Z,26.31
2017-04-17T04:56:55.880Z,26.12
2017-04-17T04:58:05.858Z,26.21
2017-04-17T04:59:16.148Z,26.12
2017-04-17T05:00:26.425Z,26.12
2017-04-17T05:01:36.645Z,26.12
2017-04-17T05:02:46.311Z,26.03
2017-04-17T05:03:56.106Z,26.31
2017-04-17T05:05:06.397Z,26.12
2017-04-17T05:06:16.688Z,26.21
2017-04-17T05:07:26.951Z,26.21
2017-04-17T05:08:37.235Z,26.03
2017-04-17T05:09:47.203Z,26.12
2017-04-17T05:10:57.483Z,26.12
2017-04-17T05:12:07.766Z,26.21
2017-04-17T05:13:18.299Z,26.03
2017-04-17T05:14:28.586Z,26.12
2017-04-17T05:15:38.869Z,26.12
2017-04-17T05:16:49.147Z,26.03
2017-04-17T05:17:59.425Z,26.12
2017-04-17T05:19:10.008Z,26.21
2017-04-17T05:20:20.304Z,26.12
2017-04-17T05:21:30.588Z,26.03
2017-04-17T05:22:40.555Z,26.03
2017-04-17T05:23:50.835Z,25.93
2017-04-17T05:25:01.054Z,26.12
2017-04-17T05:26:11.017Z,26.12
2017-04-17T05:27:20.670Z,25.93
2017-04-17T05:28:30.955Z,25.83
2017-04-17T05:29:41.229Z,25.93
2017-04-17T05:30:51.761Z,25.83
2017-04-17T05:32:02.033Z,25.64
2017-04-17T05:33:11.690Z,25.64
2017-04-17T05:34:21.679Z,25.73
2017-04-17T05:35:32.137Z,25.64
2017-04-17T05:36:42.523Z,25.73
2017-04-17T05:37:53.277Z,25.64
2017-04-17T05:39:03.200Z,25.64
2017-04-17T05:40:13.490Z,25.64
2017-04-17T05:41:23.463Z,25.54
2017-04-17T05:42:33.733Z,25.64
2017-04-17T05:43:44.021Z,25.64
2017-04-17T05:44:54.303Z,25.54
2017-04-17T05:46:04.592Z,25.73
2017-04-17T05:47:14.559Z,25.73
2017-04-17T05:48:25.090Z,25.73
2017-04-17T05:49:35.378Z,25.73
2017-04-17T05:50:45.660Z,25.64
2017-04-17T05:51:55.941Z,25.64
2017-04-17T05:53:05.926Z,25.73
2017-04-17T05:54:16.195Z,25.73
2017-04-17T05:55:26.163Z,25.73
2017-04-17T05:56:36.149Z,25.54
2017-04-17T05:57:46.117Z,25.83
2017-04-17T05:58:56.398Z,25.73
2017-04-17T06:00:06.623Z,25.73
2017-04-17T06:01:16.897Z,25.73
2017-04-17T06:02:27.183Z,25.73
2017-04-17T06:03:37.157Z,25.83
2017-04-17T06:04:47.129Z,25.73
2017-04-17T06:05:57.658Z,25.83
2017-04-17T06:07:07.939Z,25.83
2017-04-17T06:08:17.597Z,25.83
2017-04-17T06:09:27.886Z,25.83
2017-04-17T06:10:37.878Z,25.93
2017-04-17T06:11:48.641Z,26.03
2017-04-17T06:12:58.637Z,25.93
2017-04-17T06:14:08.715Z,25.83
2017-04-17T06:15:18.996Z,25.93
2017-04-17T06:16:29.267Z,26.03
2017-04-17T06:17:39.798Z,25.93
2017-04-17T06:18:50.084Z,25.93
2017-04-17T06:20:00.364Z,25.54
2017-04-17T06:21:10.659Z,25.54
2017-04-17T06:22:20.632Z,25.54
2017-04-17T06:23:31.172Z,26.03
2017-04-17T06:24:41.468Z,25.93
2017-04-17T06:25:51.448Z,25.64
2017-04-17T06:27:01.724Z,26.03
2017-04-17T06:28:11.385Z,25.45
2017-04-17T06:29:21.919Z,25.64
2017-04-17T06:30:32.209Z,25.64
2017-04-17T06:31:42.183Z,25.73
2017-04-17T06:32:52.472Z,25.73
2017-04-17T06:34:02.442Z,25.64
2017-04-17T06:35:13.039Z,25.64
2017-04-17T06:36:23.323Z,25.64
2017-04-17T06:37:33.290Z,25.73
2017-04-17T06:38:43.574Z,25.45
2017-04-17T06:39:54.070Z,25.64
2017-04-17T06:41:04.598Z,25.73
2017-04-17T06:42:14.934Z,25.26
2017-04-17T06:43:25.221Z,25.26
2017-04-17T06:44:35.508Z,25.27
2017-04-17T06:45:45.674Z,25.27
2017-04-17T06:46:55.902Z,25.26
2017-04-17T06:48:06.206Z,25.07
2017-04-17T06:49:16.189Z,25.07
2017-04-17T06:50:26.481Z,25.36
2017-04-17T06:51:36.759Z,25.27
2017-04-17T06:52:47.288Z,25.27
2017-04-17T06:53:57.580Z,24.98
2017-04-17T06:55:07.872Z,25.07
2017-04-17T06:56:17.845Z,25.07
2017-04-17T06:57:27.516Z,25.07
2017-04-17T06:58:37.734Z,25.27
2017-04-17T06:59:47.390Z,24.69
2017-04-17T07:00:57.679Z,24.79
2017-04-17T07:02:07.649Z,24.69
2017-04-17T07:03:17.939Z,24.79
2017-04-17T07:04:28.160Z,24.88
2017-04-17T07:05:38.448Z,24.98
2017-04-17T07:06:48.761Z,24.88
2017-04-17T07:07:59.036Z,24.88
2017-04-17T07:09:08.698Z,24.88
2017-04-17T07:10:19.236Z,24.88
2017-04-17T07:11:29.522Z,24.79
2017-04-17T07:12:39.804Z,24.98
2017-04-17T07:13:49.789Z,24.69
2017-04-17T07:15:00.071Z,24.69
2017-04-17T07:16:10.299Z,24.69
2017-04-17T07:17:20.606Z,24.69
2017-04-17T07:18:30.587Z,24.79
2017-04-17T07:19:40.794Z,24.6
2017-04-17T07:20:51.087Z,24.69
2017-04-17T07:22:01.307Z,24.5
2017-04-17T07:23:11.594Z,24.4
2017-04-17T07:24:21.580Z,24.6
2017-04-17T07:25:31.865Z,24.4
2017-04-17T07:26:42.143Z,24.5
2017-04-17T07:27:52.441Z,24.3
2017-04-17T07:29:02.727Z,24.11
2017-04-17T07:30:13.019Z,24.11
2017-04-17T07:31:22.999Z,24.3
2017-04-17T07:32:33.294Z,24.3
2017-04-17T07:33:43.824Z,24.21
2017-04-17T07:34:54.151Z,24.22
2017-04-17T07:36:04.432Z,24.13
2017-04-17T07:37:14.711Z,24.13
2017-04-17T07:38:24.383Z,24.3
2017-04-17T07:39:34.605Z,24.13
2017-04-17T07:40:44.592Z,24.22
2017-04-17T07:41:54.557Z,23.84
2017-04-17T07:43:04.841Z,23.93
2017-04-17T07:44:15.129Z,23.83
2017-04-17T07:45:25.379Z,23.93
2017-04-17T07:46:35.060Z,23.84
2017-04-17T07:47:45.349Z,23.73
2017-04-17T07:48:55.323Z,23.92
2017-04-17T07:50:05.302Z,23.65
2017-04-17T07:51:15.896Z,23.93
2017-04-17T07:52:26.184Z,23.74
2017-04-17T07:53:36.492Z,23.74
2017-04-17T07:54:46.784Z,23.73
2017-04-17T07:55:57.076Z,23.93
2017-04-17T07:57:07.611Z,23.93
2017-04-17T07:58:17.934Z,23.63
2017-04-17T07:59:27.916Z,23.73
2017-04-17T08:00:38.216Z,23.63
2017-04-17T08:01:48.496Z,23.63
2017-04-17T08:02:59.087Z,23.83
2017-04-17T08:04:08.757Z,23.74
2017-04-17T08:05:19.036Z,23.73
2017-04-17T08:06:29.320Z,23.83
2017-04-17T08:07:39.621Z,23.73
2017-04-17T08:08:49.898Z,23.63
2017-04-17T08:10:00.196Z,23.44
2017-04-17T08:11:10.479Z,23.44
2017-04-17T08:12:20.457Z,23.07
2017-04-17T08:13:30.739Z,23.16
2017-04-17T08:14:41.284Z,23.26
2017-04-17T08:15:51.564Z,23.26
2017-04-17T08:17:01.542Z,23.26
2017-04-17T08:18:11.514Z,23.06
2017-04-17T08:19:21.497Z,23.36
2017-04-17T08:20:32.042Z,23.07
2017-04-17T08:21:42.016Z,22.97
2017-04-17T08:22:52.302Z,23.06
2017-04-17T08:24:02.506Z,23.07
2017-04-17T08:25:12.785Z,23.07
2017-04-17T08:26:23.375Z,23.06
2017-04-17T08:27:33.667Z,22.97
2017-04-17T08:28:43.652Z,23.06
2017-04-17T08:29:53.630Z,23.06
2017-04-17T08:31:03.624Z,23.07
2017-04-17T08:32:14.152Z,22.97
2017-04-17T08:33:24.126Z,22.97
2017-04-17T08:34:34.425Z,22.97
2017-04-17T08:35:44.725Z,23.07
2017-04-17T08:36:55.008Z,22.97
2017-04-17T08:38:05.616Z,23.07
2017-04-17T08:39:15.926Z,23.07
2017-04-17T08:40:25.913Z,22.88
2017-04-17T08:41:36.202Z,22.86
2017-04-17T08:42:46.185Z,22.86
2017-04-17T08:43:56.776Z,22.96
2017-04-17T08:45:07.054Z,22.86
2017-04-17T08:46:17.052Z,22.86
2017-04-17T08:47:27.040Z,22.88
2017-04-17T08:48:37.140Z,22.96
2017-04-17T08:49:47.382Z,22.86
2017-04-17T08:50:57.678Z,22.77
2017-04-17T08:52:07.956Z,22.78
2017-04-17T08:53:17.623Z,22.58
2017-04-17T08:54:27.614Z,22.69
2017-04-17T08:55:37.847Z,22.77
2017-04-17T08:56:48.125Z,22.77
2017-04-17T08:57:58.752Z,22.69
2017-04-17T08:59:09.230Z,22.48
2017-04-17T09:00:19.572Z,22.49
2017-04-17T09:01:29.804Z,22.39
2017-04-17T09:02:40.088Z,22.3
2017-04-17T09:03:50.073Z,22.11
2017-04-17T09:05:00.377Z,22.09
2017-04-17T09:06:10.673Z,22.01
2017-04-17T09:07:21.261Z,22.01
2017-04-17T09:08:31.538Z,22.2
2017-04-17T09:09:41.533Z,22.11
2017-04-17T09:10:51.831Z,21.92
2017-04-17T09:12:01.183Z,21.92
2017-04-17T09:13:11.459Z,22.2
2017-04-17T09:14:21.444Z,21.82
2017-04-17T09:15:31.738Z,22.2
2017-04-17T09:16:42.037Z,22.01
2017-04-17T09:17:52.332Z,22.01
2017-04-17T09:19:02.882Z,21.81
2017-04-17T09:20:12.891Z,21.92
2017-04-17T09:21:23.182Z,21.91
2017-04-17T09:22:33.163Z,22.09
2017-04-17T09:23:43.459Z,22
2017-04-17T09:24:53.700Z,22
2017-04-17T09:26:04.016Z,22.09
2017-04-17T09:27:14.314Z,22.09
2017-04-17T09:28:23.988Z,22.19
2017-04-17T09:29:34.286Z,22.19
2017-04-17T09:30:44.891Z,21.91
2017-04-17T09:31:54.864Z,22.19
2017-04-17T09:33:05.182Z,21.91
2017-04-17T09:34:15.216Z,21.91
2017-04-17T09:35:25.603Z,22
2017-04-17T09:36:36.193Z,21.91
2017-04-17T09:37:46.201Z,21.91
2017-04-17T09:38:56.609Z,21.62
2017-04-17T09:40:06.906Z,21.71
2017-04-17T09:41:16.568Z,21.92
2017-04-17T09:42:26.493Z,21.61
2017-04-17T09:43:36.469Z,21.44
2017-04-17T09:44:46.772Z,21.62
2017-04-17T09:45:57.054Z,21.53
2017-04-17T09:47:07.338Z,21.62
2017-04-17T09:48:17.878Z,21.44
2017-04-17T09:49:27.870Z,21.44
2017-04-17T09:50:38.175Z,21.44
2017-04-17T09:51:48.189Z,21.24
2017-04-17T09:52:58.176Z,21.33
2017-04-17T09:54:08.719Z,21.23
2017-04-17T09:55:19.013Z,21.44
2017-04-17T09:56:28.997Z,21.34
2017-04-17T09:57:38.980Z,21.44
2017-04-17T09:58:49.274Z,21.44
2017-04-17T09:59:59.825Z,21.34
2017-04-17T10:01:09.502Z,21.53
2017-04-17T10:02:19.810Z,21.34
2017-04-17T10:03:29.798Z,21.53
2017-04-17T10:04:39.792Z,21.44
2017-04-17T10:05:49.718Z,21.34
2017-04-17T10:07:00.037Z,21.42
2017-04-17T10:08:10.349Z,21.33
2017-04-17T10:09:20.658Z,21.42
2017-04-17T10:10:30.958Z,21.33
2017-04-17T10:11:41.243Z,21.23
2017-04-17T10:12:51.235Z,21.33
2017-04-17T10:14:01.551Z,21.42
2017-04-17T10:15:11.858Z,21.42
2017-04-17T10:16:22.198Z,21.61
2017-04-17T10:17:32.125Z,21.61
2017-04-17T10:18:41.818Z,21.42
2017-04-17T10:19:52.128Z,21.33
2017-04-17T10:21:02.113Z,21.42
2017-04-17T10:22:12.441Z,21.61
2017-04-17T10:23:22.991Z,21.71
2017-04-17T10:24:33.308Z,21.61
2017-04-17T10:25:43.295Z,21.33
2017-04-17T10:26:52.980Z,21.42
2017-04-17T10:28:02.974Z,21.42
2017-04-17T10:29:13.579Z,21.52
2017-04-17T10:30:23.893Z,21.33
2017-04-17T10:31:34.195Z,21.33
2017-04-17T10:32:44.501Z,21.14
2017-04-17T10:33:54.500Z,21.34
2017-04-17T10:35:05.064Z,21.04
2017-04-17T10:36:15.359Z,21.42
2017-04-17T10:37:25.672Z,21.15
2017-04-17T10:38:35.670Z,21.15
2017-04-17T10:39:45.691Z,21.14
2017-04-17T10:40:56.267Z,21.33
2017-04-17T10:42:06.263Z,21.15
2017-04-17T10:43:16.579Z,21.14
2017-04-17T10:44:26.308Z,21.05
2017-04-17T10:45:36.320Z,21.04
2017-04-17T10:46:46.874Z,21.15
2017-04-17T10:47:57.172Z,21.05
2017-04-17T10:49:07.312Z,21.24
2017-04-17T10:50:17.259Z,21.15
2017-04-17T10:51:27.469Z,21.24
2017-04-17T10:52:38.214Z,21.14
2017-04-17T10:53:48.317Z,21.23
2017-04-17T10:54:58.319Z,21.15
2017-04-17T10:56:08.319Z,21.15
2017-04-17T10:57:18.358Z,20.75
2017-04-17T10:58:28.928Z,20.85
2017-04-17T10:59:39.242Z,20.75
2017-04-17T11:00:49.246Z,20.76
2017-04-17T11:01:59.563Z,20.86
2017-04-17T11:03:09.552Z,20.76
2017-04-17T11:04:20.183Z,20.95
2017-04-17T11:05:29.868Z,20.94
2017-04-17T11:06:40.190Z,20.95
2017-04-17T11:07:50.532Z,20.94
2017-04-17T11:09:00.545Z,20.94
2017-04-17T11:10:11.148Z,21.04
2017-04-17T11:11:21.168Z,20.86
2017-04-17T11:12:31.184Z,20.95
2017-04-17T11:13:41.492Z,20.76
2017-04-17T11:14:51.830Z,20.86
2017-04-17T11:16:02.445Z,20.95
2017-04-17T11:17:12.775Z,20.95
2017-04-17T11:18:22.782Z,20.86
2017-04-17T11:19:33.127Z,20.86
2017-04-17T11:20:43.145Z,20.85
2017-04-17T11:21:53.399Z,20.95
2017-04-17T11:23:03.469Z,20.95
2017-04-17T11:24:13.963Z,20.95
2017-04-17T11:25:24.392Z,20.94
2017-04-17T11:26:34.827Z,20.76
2017-04-17T11:27:45.761Z,21.14
2017-04-17T11:28:55.867Z,21.24
2017-04-17T11:30:05.901Z,21.04
2017-04-17T11:31:15.267Z,20.85
2017-04-17T11:32:25.607Z,21.23
2017-04-17T11:33:36.208Z,20.75
2017-04-17T11:34:46.219Z,21.14
2017-04-17T11:35:56.563Z,21.23
2017-04-17T11:37:06.892Z,21.42
2017-04-17T11:38:16.914Z,21.42
2017-04-17T11:39:27.587Z,21.52
2017-04-17T11:40:37.916Z,21.42
2017-04-17T11:41:47.634Z,21.42
2017-04-17T11:42:57.653Z,21.61
2017-04-17T11:44:07.962Z,21.61
2017-04-17T11:45:17.924Z,21.61
2017-04-17T11:46:28.253Z,21.52
2017-04-17T11:47:37.966Z,21.61
2017-04-17T11:48:48.286Z,21.61
2017-04-17T11:49:58.002Z,21.91
2017-04-17T11:51:08.585Z,21.71
2017-04-17T11:52:18.908Z,21.52
2017-04-17T11:53:29.042Z,21.61
2017-04-17T11:54:39.363Z,21.52
2017-04-17T11:55:49.695Z,21.71
2017-04-17T11:57:00.257Z,21.71
2017-04-17T11:58:10.276Z,21.71
2017-04-17T11:59:19.972Z,21.61
2017-04-17T12:00:29.954Z,21.71
2017-04-17T12:01:39.642Z,21.71
2017-04-17T12:02:50.235Z,21.71
2017-04-17T12:04:00.583Z,21.61
2017-04-17T12:05:10.587Z,21.52
2017-04-17T12:06:21.206Z,21.71
2017-04-17T12:07:31.625Z,21.82
2017-04-17T12:08:42.568Z,21.91
2017-04-17T12:09:53.021Z,21.71
2017-04-17T12:11:03.391Z,22
2017-04-17T12:12:13.707Z,21.91
2017-04-17T12:13:24.041Z,21.91
2017-04-17T12:14:34.681Z,21.81
2017-04-17T12:15:44.676Z,22.09
2017-04-17T12:16:54.710Z,21.81
2017-04-17T12:18:04.711Z,22.09
2017-04-17T12:19:14.730Z,21.61
2017-04-17T12:20:25.290Z,21.71
2017-04-17T12:21:35.631Z,21.91
2017-04-17T12:22:45.642Z,21.81
2017-04-17T12:23:55.995Z,21.91
2017-04-17T12:25:06.311Z,21.61
2017-04-17T12:26:16.968Z,21.71
2017-04-17T12:27:27.286Z,21.91
2017-04-17T12:28:37.015Z,21.71
2017-04-17T12:29:47.375Z,21.42
2017-04-17T12:30:57.695Z,21.52
2017-04-17T12:32:08.350Z,21.61
2017-04-17T12:33:18.664Z,21.61
2017-04-17T12:34:29.034Z,21.71
2017-04-17T12:35:39.041Z,21.61
2017-04-17T12:36:48.747Z,21.42
2017-04-17T12:37:59.320Z,21.42
2017-04-17T12:39:09.393Z,21.33
2017-04-17T12:40:18.768Z,21.42
2017-04-17T12:41:28.760Z,21.33
2017-04-17T12:42:39.376Z,21.33
2017-04-17T12:43:49.368Z,21.14
2017-04-17T12:44:59.927Z,21.23
2017-04-17T12:46:09.995Z,21.14
2017-04-17T12:47:20.566Z,21.14
2017-04-17T12:48:30.890Z,21.14
2017-04-17T12:49:41.498Z,21.23
2017-04-17T12:50:51.521Z,21.34
2017-04-17T12:52:01.531Z,21.33
2017-04-17T12:53:11.875Z,21.23
2017-04-17T12:54:21.629Z,20.95
2017-04-17T12:55:32.189Z,21.33
2017-04-17T12:56:42.536Z,20.85
2017-04-17T12:57:52.893Z,20.85
2017-04-17T12:59:03.217Z,20.85
2017-04-17T13:00:13.545Z,21.42
2017-04-17T13:01:24.122Z,21.23
2017-04-17T13:02:34.458Z,21.14
2017-04-17T13:03:44.139Z,21.33
2017-04-17T13:04:54.463Z,21.42
2017-04-17T13:06:04.804Z,21.14
2017-04-17T13:07:15.418Z,21.23
2017-04-17T13:08:25.759Z,21.14
2017-04-17T13:09:35.445Z,21.14
2017-04-17T13:10:45.747Z,21.14
2017-04-17T13:11:55.763Z,21.14
2017-04-17T13:13:06.023Z,21.14
2017-04-17T13:14:16.025Z,21.23
2017-04-17T13:15:26.047Z,21.33
2017-04-17T13:16:36.387Z,21.14
2017-04-17T13:17:45.485Z,21.14
2017-04-17T13:18:55.784Z,20.85
2017-04-17T13:20:06.105Z,20.85
2017-04-17T13:21:16.103Z,20.86
2017-04-17T13:22:26.420Z,20.85
2017-04-17T13:23:36.736Z,21.04
2017-04-17T13:24:47.002Z,21.14
2017-04-17T13:25:57.017Z,20.65
2017-04-17T13:27:07.015Z,20.94
2017-04-17T13:28:16.704Z,20.95
2017-04-17T13:29:26.392Z,21.04
2017-04-17T13:30:37.013Z,21.05
2017-04-17T13:31:47.341Z,20.47
2017-04-17T13:32:57.347Z,20.86
2017-04-17T13:34:07.031Z,20.47
2017-04-17T13:35:17.372Z,20.75
2017-04-17T13:36:27.621Z,20.76
2017-04-17T13:37:37.615Z,20.57
2017-04-17T13:38:47.639Z,20.47
2017-04-17T13:39:57.988Z,20.17
2017-04-17T13:41:08.007Z,20.56
2017-04-17T13:42:18.659Z,20.47
2017-04-17T13:43:28.668Z,20.47
2017-04-17T13:44:39.039Z,20.65
2017-04-17T13:45:49.375Z,20.76
2017-04-17T13:46:59.366Z,20.37
2017-04-17T13:48:09.696Z,20.28
2017-04-17T13:49:20.019Z,20.47
2017-04-17T13:50:30.037Z,20.17
2017-04-17T13:51:40.362Z,20.47
2017-04-17T13:52:50.684Z,20.75
2017-04-17T13:54:00.949Z,20.65
2017-04-17T13:55:11.273Z,20.75
2017-04-17T13:56:21.608Z,20.75
2017-04-17T13:57:31.925Z,20.75
2017-04-17T13:58:42.284Z,20.94
2017-04-17T13:59:52.893Z,20.75
2017-04-17T14:01:03.257Z,21.04
2017-04-17T14:02:13.791Z,20.94
2017-04-17T14:03:24.201Z,21.14
2017-04-17T14:04:34.200Z,21.23
2017-04-17T14:05:44.166Z,20.65
2017-04-17T14:06:54.179Z,20.75
2017-04-17T14:08:04.494Z,21.04
2017-04-17T14:09:14.833Z,20.56
2017-04-17T14:10:24.922Z,21.23
2017-04-17T14:11:35.614Z,20.75
2017-04-17T14:12:45.595Z,21.24
2017-04-17T14:13:55.622Z,20.95
2017-04-17T14:15:05.631Z,21.23
2017-04-17T14:16:15.964Z,21.23
2017-04-17T14:17:26.265Z,21.14
2017-04-17T14:18:36.600Z,21.04
2017-04-17T14:19:46.933Z,20.65
2017-04-17T14:20:56.937Z,21.14
2017-04-17T14:22:07.012Z,21.24
2017-04-17T14:23:17.273Z,21.23
2017-04-17T14:24:27.607Z,21.04
2017-04-17T14:25:37.609Z,21.04
2017-04-17T14:26:47.951Z,21.14
2017-04-17T14:27:58.266Z,21.04
2017-04-17T14:29:08.851Z,21.04
2017-04-17T14:30:19.177Z,21.14
2017-04-17T14:31:29.509Z,21.04
2017-04-17T14:32:39.507Z,21.04
2017-04-17T14:33:49.539Z,21.04
2017-04-17T14:35:00.126Z,20.94
2017-04-17T14:36:10.426Z,20.94
2017-04-17T14:37:21.099Z,20.94
2017-04-17T14:38:31.676Z,21.23
2017-04-17T14:39:42.022Z,21.04
2017-04-17T14:40:52.640Z,21.04
2017-04-17T14:42:02.924Z,20.85
2017-04-17T14:43:13.273Z,20.65
2017-04-17T14:44:23.291Z,20.37
2017-04-17T14:45:33.624Z,20.85
2017-04-17T14:46:44.207Z,20.75
2017-04-17T14:47:54.525Z,20.75
2017-04-17T14:49:04.838Z,20.85
2017-04-17T14:50:15.174Z,20.85
2017-04-17T14:51:25.228Z,20.65
2017-04-17T14:52:35.179Z,20.85
2017-04-17T14:53:45.521Z,20.65
2017-04-17T14:54:55.888Z,20.56
2017-04-17T14:56:05.905Z,20.47
2017-04-17T14:57:16.241Z,20.08
2017-04-17T14:58:26.602Z,20.47
2017-04-17T14:59:36.925Z,20.65
2017-04-17T15:00:47.273Z,20.65
2017-04-17T15:01:57.593Z,20.47
2017-04-17T15:03:07.935Z,20.27
2017-04-17T15:04:18.184Z,20.27
2017-04-17T15:05:28.242Z,20.47
2017-04-17T15:06:38.560Z,20.37
2017-04-17T15:07:48.911Z,19.98